Time;durP1;ratioP1;P1;durP2;ratioP2;P2;SDS_P1;SDS_P2;PMS_P1;PMS_P2;Temp;Humidity;BMP_temperature;BMP_pressure;BME280_temperature;BME280_humidity;BME280_pressure;Samples;Min_cycle;Max_cycle;Signal;HPM_P1;HPM_P2
2021/01/16 00:00:27;;;;;;;26.63;18.33;;;;;;;;;;4966432;28;20138;-83
2021/01/16 00:02:53;;;;;;;28.77;20.10;;;;;;;;;;4973085;28;20085;-84
2021/01/16 00:05:21;;;;;;;22.98;18.13;;;;;;;;;;4961252;28;20062;-84
2021/01/16 00:07:59;;;;;;;24.83;18.20;;;;;;;;;;4960799;28;20047;-82
2021/01/16 00:10:25;;;;;;;24.35;18.70;;;;;;;;;;4962489;28;20052;-82
2021/01/16 00:12:51;;;;;;;24.63;18.92;;;;;;;;;;4960172;28;20043;-81
2021/01/16 00:15:17;;;;;;;26.95;18.63;;;;;;;;;;4958457;28;20055;-81
2021/01/16 00:17:43;;;;;;;24.88;17.80;;;;;;;;;;4964667;28;20042;-81
2021/01/16 00:20:10;;;;;;;22.95;17.48;;;;;;;;;;4969497;28;20176;-81
2021/01/16 00:22:49;;;;;;;23.27;17.73;;;;;;;;;;4959724;28;20051;-81
2021/01/16 00:25:15;;;;;;;26.07;17.03;;;;;;;;;;4959186;28;20078;-81
2021/01/16 00:27:42;;;;;;;24.80;17.55;;;;;;;;;;4961388;28;20372;-83
2021/01/16 00:30:09;;;;;;;23.63;18.10;;;;;;;;;;4963833;28;21826;-81
2021/01/16 00:32:35;;;;;;;27.50;17.90;;;;;;;;;;4966921;28;20130;-82
2021/01/16 00:35:13;;;;;;;22.42;16.10;;;;;;;;;;4955953;28;20059;-85
2021/01/16 00:37:40;;;;;;;23.55;16.15;;;;;;;;;;4963635;28;20438;-91
2021/01/16 00:40:07;;;;;;;22.30;16.52;;;;;;;;;;4958530;28;20413;-88
2021/01/16 00:42:37;;;;;;;22.45;16.33;;;;;;;;;;4960655;28;20070;-85
2021/01/16 00:45:03;;;;;;;;;;;;;;;;;;4962214;28;20129;-84
2021/01/16 00:47:29;;;;;;;20.52;15.48;;;;;;;;;;4966649;28;20265;-85
2021/01/16 00:49:56;;;;;;;20.85;15.57;;;;;;;;;;4959690;28;20432;-84
2021/01/16 00:52:22;;;;;;;21.95;15.90;;;;;;;;;;4965630;28;20054;-83
2021/01/16 00:54:49;;;;;;;23.33;16.27;;;;;;;;;;4957938;28;20497;-82
2021/01/16 00:57:15;;;;;;;20.52;15.30;;;;;;;;;;4964840;28;20047;-84
2021/01/16 00:59:41;;;;;;;21.60;16.15;;;;;;;;;;4959156;28;20063;-84
2021/01/16 01:02:10;;;;;;;21.60;14.82;;;;;;;;;;4960054;28;20051;-84
2021/01/16 01:04:37;;;;;;;20.10;15.32;;;;;;;;;;4967188;28;20055;-85
2021/01/16 01:07:08;;;;;;;19.30;15.82;;;;;;;;;;4959516;28;20055;-82
2021/01/16 01:09:34;;;;;;;19.80;15.00;;;;;;;;;;4959375;28;20484;-83
2021/01/16 01:12:00;;;;;;;20.67;14.98;;;;;;;;;;4958490;28;20054;-82
2021/01/16 01:14:26;;;;;;;20.45;14.85;;;;;;;;;;4963992;28;20059;-82
2021/01/16 01:16:52;;;;;;;20.73;15.15;;;;;;;;;;4968261;28;20132;-83
2021/01/16 01:19:19;;;;;;;31.00;14.52;;;;;;;;;;4970705;28;20055;-81
2021/01/16 01:21:47;;;;;;;19.52;14.20;;;;;;;;;;4955115;28;20126;-82
2021/01/16 01:24:13;;;;;;;19.77;14.32;;;;;;;;;;4968006;28;20058;-83
2021/01/16 01:26:40;;;;;;;19.05;14.05;;;;;;;;;;4958976;28;20044;-85
2021/01/16 01:29:06;;;;;;;19.27;14.32;;;;;;;;;;4965667;28;20161;-85
2021/01/16 01:31:32;;;;;;;19.92;13.85;;;;;;;;;;4968691;28;20046;-86
2021/01/16 01:33:59;;;;;;;21.30;14.73;;;;;;;;;;4963445;28;20521;-83
2021/01/16 01:36:25;;;;;;;16.40;13.20;;;;;;;;;;4963662;28;20050;-84
2021/01/16 01:38:53;;;;;;;20.92;14.18;;;;;;;;;;4967152;28;20074;-84
2021/01/16 01:41:19;;;;;;;19.10;13.55;;;;;;;;;;4963026;28;20046;-81
2021/01/16 01:43:45;;;;;;;20.70;14.15;;;;;;;;;;4968646;28;20087;-82
2021/01/16 01:46:16;;;;;;;19.08;13.80;;;;;;;;;;4965111;28;20051;-86
2021/01/16 01:48:42;;;;;;;17.73;13.25;;;;;;;;;;4966761;28;20106;-84
2021/01/16 01:51:10;;;;;;;16.60;12.05;;;;;;;;;;4962440;28;20051;-79
2021/01/16 01:53:36;;;;;;;14.88;12.10;;;;;;;;;;4970556;28;20492;-79
2021/01/16 01:56:03;;;;;;;17.05;12.48;;;;;;;;;;4963439;28;20047;-84
2021/01/16 01:58:30;;;;;;;18.20;13.82;;;;;;;;;;4962055;28;20065;-83
2021/01/16 02:00:56;;;;;;;19.13;12.75;;;;;;;;;;4967111;28;20046;-82
2021/01/16 02:03:24;;;;;;;17.13;12.35;;;;;;;;;;4972250;28;20531;-82
2021/01/16 02:05:57;;;;;;;16.40;12.48;;;;;;;;;;4966521;28;20050;-82
2021/01/16 02:08:23;;;;;;;16.13;12.52;;;;;;;;;;4965806;28;20050;-82
2021/01/16 02:10:49;;;;;;;16.38;12.27;;;;;;;;;;4960971;28;20050;-81
2021/01/16 02:13:15;;;;;;;16.02;11.82;;;;;;;;;;4970980;28;20051;-81
2021/01/16 02:16:03;;;;;;;17.35;12.30;;;;;;;;;;4965549;28;20421;-83
2021/01/16 02:18:30;;;;;;;16.48;11.70;;;;;;;;;;4962735;28;20051;-80
2021/01/16 02:20:57;;;;;;;16.70;12.45;;;;;;;;;;4968823;28;20055;-80
2021/01/16 02:23:30;;;;;;;15.45;12.13;;;;;;;;;;4972187;28;20137;-80
2021/01/16 02:26:15;;;;;;;15.48;11.30;;;;;;;;;;4974475;28;20438;-81
2021/01/16 02:28:58;;;;;;;16.15;12.25;;;;;;;;;;4971491;28;20121;-81
2021/01/16 02:31:37;;;;;;;16.15;11.48;;;;;;;;;;4962387;28;20458;-79
2021/01/16 02:34:04;;;;;;;14.70;11.73;;;;;;;;;;4963226;28;20054;-78
2021/01/16 02:36:33;;;;;;;17.48;12.35;;;;;;;;;;4962131;28;20045;-79
2021/01/16 02:38:59;;;;;;;14.23;10.97;;;;;;;;;;4962099;28;20047;-80
2021/01/16 02:41:49;;;;;;;16.42;11.25;;;;;;;;;;4962733;28;20417;-77
2021/01/16 02:44:26;;;;;;;13.93;11.30;;;;;;;;;;4969732;28;20055;-82
2021/01/16 02:46:55;;;;;;;16.10;11.70;;;;;;;;;;4968690;28;20534;-83
2021/01/16 02:49:21;;;;;;;16.08;12.43;;;;;;;;;;4970113;28;20552;-81
2021/01/16 02:52:01;;;;;;;15.82;11.85;;;;;;;;;;4966160;28;20174;-81
2021/01/16 02:54:27;;;;;;;;;;;;;;;;;;4965713;28;20081;-81
2021/01/16 02:56:54;;;;;;;16.58;10.70;;;;;;;;;;4967467;28;20045;-82
2021/01/16 02:59:20;;;;;;;15.90;11.20;;;;;;;;;;4973006;28;20057;-83
2021/01/16 03:01:46;;;;;;;16.00;11.02;;;;;;;;;;4971036;28;20094;-83
2021/01/16 03:04:13;;;;;;;13.93;10.90;;;;;;;;;;4957884;28;20055;-83
2021/01/16 03:06:44;;;;;;;16.65;12.05;;;;;;;;;;4960823;28;20049;-84
2021/01/16 03:09:11;;;;;;;15.10;11.18;;;;;;;;;;4960530;28;20054;-83
2021/01/16 03:11:37;;;;;;;13.68;11.20;;;;;;;;;;4966172;28;20057;-84
2021/01/16 03:14:05;;;;;;;14.00;10.65;;;;;;;;;;4964334;28;20050;-86
2021/01/16 03:16:33;;;;;;;13.13;10.10;;;;;;;;;;4967684;28;20047;-86
2021/01/16 03:19:02;;;;;;;14.27;10.38;;;;;;;;;;4963734;28;20117;-85
2021/01/16 03:21:28;;;;;;;13.75;10.90;;;;;;;;;;4964850;28;21028;-85
2021/01/16 03:23:54;;;;;;;14.32;10.43;;;;;;;;;;4976015;28;22121;-84
2021/01/16 03:26:20;;;;;;;14.43;10.57;;;;;;;;;;4968019;28;20042;-84
2021/01/16 03:28:47;;;;;;;15.25;11.02;;;;;;;;;;4971519;28;20133;-85
2021/01/16 03:31:16;;;;;;;13.68;10.25;;;;;;;;;;4965442;28;20054;-84
2021/01/16 03:33:45;;;;;;;13.43;11.15;;;;;;;;;;4960673;28;20055;-83
2021/01/16 03:36:11;;;;;;;12.98;10.35;;;;;;;;;;4969788;28;20166;-85
2021/01/16 03:38:37;;;;;;;13.80;10.63;;;;;;;;;;4963142;28;20142;-83
2021/01/16 03:41:06;;;;;;;12.88;10.68;;;;;;;;;;4964466;28;20042;-84
2021/01/16 03:43:32;;;;;;;12.80;9.95;;;;;;;;;;4959739;28;20486;-83
2021/01/16 03:45:58;;;;;;;13.00;9.32;;;;;;;;;;4965583;28;20061;-79
2021/01/16 03:48:25;;;;;;;15.18;10.10;;;;;;;;;;4962530;28;20126;-80
2021/01/16 03:50:51;;;;;;;13.02;10.65;;;;;;;;;;4963377;28;20117;-80
2021/01/16 03:53:18;;;;;;;11.10;8.93;;;;;;;;;;4962303;28;20050;-79
2021/01/16 03:55:44;;;;;;;12.52;10.20;;;;;;;;;;4974401;28;20050;-79
2021/01/16 03:58:10;;;;;;;13.27;9.68;;;;;;;;;;4960631;28;20481;-82
2021/01/16 04:00:36;;;;;;;11.90;9.23;;;;;;;;;;4960583;28;20864;-80
2021/01/16 04:03:02;;;;;;;12.18;9.38;;;;;;;;;;4965039;28;20436;-80
2021/01/16 04:05:29;;;;;;;17.70;9.80;;;;;;;;;;4963257;28;20393;-81
2021/01/16 04:07:58;;;;;;;12.07;9.80;;;;;;;;;;4967728;28;20054;-80
2021/01/16 04:10:27;;;;;;;15.85;9.80;;;;;;;;;;4966289;28;20055;-79
2021/01/16 04:13:00;;;;;;;13.25;9.10;;;;;;;;;;4959610;28;20100;-79
2021/01/16 04:15:26;;;;;;;12.38;9.52;;;;;;;;;;4967008;28;20137;-79
2021/01/16 04:17:52;;;;;;;14.00;9.10;;;;;;;;;;4960682;28;20490;-79
2021/01/16 04:20:18;;;;;;;11.45;8.38;;;;;;;;;;4961292;28;20059;-81
2021/01/16 04:22:44;;;;;;;11.00;8.45;;;;;;;;;;4962828;28;20502;-80
2021/01/16 04:25:10;;;;;;;10.80;8.75;;;;;;;;;;4967384;28;20042;-81
2021/01/16 04:27:36;;;;;;;11.90;8.73;;;;;;;;;;4969091;28;20051;-79
2021/01/16 04:30:04;;;;;;;11.65;8.52;;;;;;;;;;4974840;28;20066;-78
2021/01/16 04:32:30;;;;;;;12.02;8.70;;;;;;;;;;4962986;28;20074;-75
2021/01/16 04:34:56;;;;;;;10.52;8.02;;;;;;;;;;4961383;28;20058;-75
2021/01/16 04:37:22;;;;;;;11.98;9.05;;;;;;;;;;4963577;28;20049;-75
2021/01/16 04:39:49;;;;;;;12.48;9.23;;;;;;;;;;4965049;28;21452;-77
2021/01/16 04:42:15;;;;;;;11.20;7.85;;;;;;;;;;4959243;28;20054;-76
2021/01/16 04:44:43;;;;;;;10.82;7.50;;;;;;;;;;4990460;28;20053;-74
2021/01/16 04:47:11;;;;;;;9.75;7.70;;;;;;;;;;4959627;28;20043;-73
2021/01/16 04:49:41;;;;;;;10.13;7.63;;;;;;;;;;4959589;28;20394;-74
2021/01/16 04:52:07;;;;;;;;;;;;;;;;;;4961885;28;20053;-74
2021/01/16 04:54:34;;;;;;;9.18;6.75;;;;;;;;;;4965201;28;19973;-73
2021/01/16 04:57:00;;;;;;;11.15;7.65;;;;;;;;;;4962648;28;20043;-74
2021/01/16 04:59:27;;;;;;;13.40;8.15;;;;;;;;;;4965454;28;20065;-74
2021/01/16 05:01:56;;;;;;;9.40;7.03;;;;;;;;;;4967132;28;20039;-76
2021/01/16 05:04:23;;;;;;;8.32;7.35;;;;;;;;;;4964012;28;20402;-76
2021/01/16 05:06:51;;;;;;;9.55;7.55;;;;;;;;;;4958979;28;20102;-73
2021/01/16 05:09:18;;;;;;;11.45;7.22;;;;;;;;;;4959589;28;20133;-73
2021/01/16 05:11:55;;;;;;;11.18;7.57;;;;;;;;;;4962119;28;20047;-74
2021/01/16 05:14:25;;;;;;;10.30;7.13;;;;;;;;;;4958694;28;20153;-74
2021/01/16 05:16:51;;;;;;;9.77;7.13;;;;;;;;;;4962186;28;20161;-74
2021/01/16 05:19:23;;;;;;;9.52;7.07;;;;;;;;;;4962767;28;20053;-75
2021/01/16 05:21:49;;;;;;;10.95;7.22;;;;;;;;;;4963505;28;20047;-74
2021/01/16 05:24:16;;;;;;;8.93;6.53;;;;;;;;;;4961058;28;20524;-74
2021/01/16 05:27:02;;;;;;;8.93;6.15;;;;;;;;;;4960437;28;20047;-74
2021/01/16 05:29:29;;;;;;;12.20;7.30;;;;;;;;;;4962347;28;20518;-74
2021/01/16 05:31:56;;;;;;;7.90;6.47;;;;;;;;;;4960133;28;20050;-73
2021/01/16 05:34:23;;;;;;;8.55;6.63;;;;;;;;;;4959576;28;20358;-74
2021/01/16 05:36:50;;;;;;;9.18;6.90;;;;;;;;;;4959911;28;20047;-73
2021/01/16 05:39:17;;;;;;;9.25;6.50;;;;;;;;;;4958724;28;20057;-73
2021/01/16 05:41:44;;;;;;;8.82;6.30;;;;;;;;;;4957715;28;20047;-73
2021/01/16 05:44:12;;;;;;;9.38;6.93;;;;;;;;;;4958771;28;20138;-73
2021/01/16 05:46:42;;;;;;;11.05;6.60;;;;;;;;;;4970050;28;20043;-74
2021/01/16 05:49:12;;;;;;;9.10;6.45;;;;;;;;;;4961243;28;20063;-74
2021/01/16 05:51:38;;;;;;;8.30;5.97;;;;;;;;;;4958676;28;20081;-73
2021/01/16 05:54:04;;;;;;;6.85;5.30;;;;;;;;;;4962202;28;20693;-73
2021/01/16 05:56:32;;;;;;;8.20;5.80;;;;;;;;;;4958072;28;20053;-73
2021/01/16 05:58:58;;;;;;;7.53;5.75;;;;;;;;;;4970005;28;20402;-73
2021/01/16 06:01:25;;;;;;;8.18;5.47;;;;;;;;;;4961915;28;20047;-73
2021/01/16 06:03:52;;;;;;;7.32;6.03;;;;;;;;;;4963693;28;20047;-73
2021/01/16 06:06:18;;;;;;;10.02;6.45;;;;;;;;;;4966614;28;20042;-73
2021/01/16 06:08:49;;;;;;;7.45;5.65;;;;;;;;;;4957692;28;20130;-73
2021/01/16 06:11:15;;;;;;;8.93;6.70;;;;;;;;;;4958278;28;20047;-71
2021/01/16 06:13:41;;;;;;;8.65;6.45;;;;;;;;;;4957654;28;20054;-73
2021/01/16 06:16:15;;;;;;;8.27;6.10;;;;;;;;;;4962368;28;20162;-72
2021/01/16 06:19:04;;;;;;;8.73;6.38;;;;;;;;;;4969095;28;20054;-73
2021/01/16 06:21:30;;;;;;;8.48;5.88;;;;;;;;;;4968462;28;20051;-73
2021/01/16 06:23:58;;;;;;;8.30;5.45;;;;;;;;;;4964607;28;20058;-71
2021/01/16 06:26:24;;;;;;;7.50;5.18;;;;;;;;;;4968946;28;20054;-71
2021/01/16 06:28:53;;;;;;;7.88;5.80;;;;;;;;;;4966438;28;20141;-71
2021/01/16 06:31:26;;;;;;;8.73;5.90;;;;;;;;;;4965854;28;20051;-70
2021/01/16 06:33:57;;;;;;;7.28;5.20;;;;;;;;;;4962161;28;20050;-73
2021/01/16 06:36:30;;;;;;;7.90;6.18;;;;;;;;;;4959255;28;20413;-72
2021/01/16 06:38:57;;;;;;;7.05;5.63;;;;;;;;;;4961553;28;20065;-73
2021/01/16 06:41:28;;;;;;;7.80;5.80;;;;;;;;;;4961629;28;20052;-73
2021/01/16 06:43:54;;;;;;;8.45;6.20;;;;;;;;;;4957639;28;20058;-73
2021/01/16 06:46:40;;;;;;;6.60;5.25;;;;;;;;;;4966954;28;20046;-72
2021/01/16 06:49:07;;;;;;;7.13;4.88;;;;;;;;;;4963807;28;20494;-73
2021/01/16 06:51:33;;;;;;;6.60;5.47;;;;;;;;;;4976004;28;20038;-72
2021/01/16 06:54:05;;;;;;;6.95;5.45;;;;;;;;;;4966431;28;20065;-72
2021/01/16 06:56:33;;;;;;;8.23;5.65;;;;;;;;;;4964253;28;21008;-73
2021/01/16 06:59:00;;;;;;;7.00;5.63;;;;;;;;;;4971792;28;20063;-76
2021/01/16 07:01:30;;;;;;;7.00;4.85;;;;;;;;;;4962065;28;20102;-75
2021/01/16 07:04:00;;;;;;;6.57;5.30;;;;;;;;;;4964733;28;20055;-76
2021/01/16 07:06:43;;;;;;;7.25;5.25;;;;;;;;;;4967114;28;20129;-75
2021/01/16 07:09:11;;;;;;;8.15;5.60;;;;;;;;;;4973960;28;20051;-77
2021/01/16 07:11:47;;;;;;;7.43;5.57;;;;;;;;;;4961889;28;20047;-76
2021/01/16 07:14:17;;;;;;;8.18;5.40;;;;;;;;;;4969642;28;20054;-79
2021/01/16 07:16:44;;;;;;;6.20;5.15;;;;;;;;;;4964251;28;20561;-77
2021/01/16 07:19:11;;;;;;;7.22;5.75;;;;;;;;;;4971145;28;20051;-77
2021/01/16 07:21:41;;;;;;;6.57;5.22;;;;;;;;;;4965809;28;20082;-77
2021/01/16 07:24:07;;;;;;;;;;;;;;;;;;4963303;28;20063;-77
2021/01/16 07:26:36;;;;;;;7.70;5.38;;;;;;;;;;4961941;28;19937;-77
2021/01/16 07:29:06;;;;;;;6.65;4.78;;;;;;;;;;4969258;28;20047;-77
2021/01/16 07:31:32;;;;;;;;;;;;;;;;;;4971667;28;20059;-80
2021/01/16 07:34:00;;;;;;;8.27;5.60;;;;;;;;;;4960356;28;20363;-78
2021/01/16 07:36:26;;;;;;;8.10;5.68;;;;;;;;;;4961865;28;20047;-78
2021/01/16 07:38:52;;;;;;;7.90;5.95;;;;;;;;;;4960236;28;20079;-77
2021/01/16 07:41:22;;;;;;;7.63;5.68;;;;;;;;;;4964749;28;20051;-80
2021/01/16 07:43:56;;;;;;;7.30;5.10;;;;;;;;;;4967812;28;20390;-81
2021/01/16 07:46:28;;;;;;;8.38;6.10;;;;;;;;;;4965171;28;22000;-77
2021/01/16 07:48:59;;;;;;;8.05;5.95;;;;;;;;;;4957968;28;20134;-79
2021/01/16 07:51:32;;;;;;;8.05;5.10;;;;;;;;;;4971321;28;20050;-78
2021/01/16 07:54:12;;;;;;;7.38;5.53;;;;;;;;;;4958866;28;20051;-83
2021/01/16 07:56:39;;;;;;;9.90;5.70;;;;;;;;;;4960983;28;20043;-80
2021/01/16 07:59:14;;;;;;;8.73;5.57;;;;;;;;;;4970703;28;20059;-83
2021/01/16 08:01:59;;;;;;;12.32;6.03;;;;;;;;;;4975673;28;20046;-72
2021/01/16 08:04:26;;;;;;;7.20;5.47;;;;;;;;;;4965049;28;20051;-77
2021/01/16 08:07:09;;;;;;;6.65;4.93;;;;;;;;;;4966220;28;20051;-76
2021/01/16 08:09:47;;;;;;;7.85;5.47;;;;;;;;;;4965946;28;20105;-79
2021/01/16 08:12:13;;;;;;;8.00;5.53;;;;;;;;;;4968119;28;20145;-80
2021/01/16 08:14:41;;;;;;;7.88;5.78;;;;;;;;;;4975957;28;20043;-77
2021/01/16 08:17:12;;;;;;;7.00;5.00;;;;;;;;;;4964308;28;20075;-80
2021/01/16 08:20:05;;;;;;;6.60;4.93;;;;;;;;;;5006018;23;20306;-81
2021/01/16 08:22:39;;;;;;;8.88;4.78;;;;;;;;;;4982483;28;20054;-81
2021/01/16 08:25:07;;;;;;;8.40;6.13;;;;;;;;;;4983298;28;20150;-87
2021/01/16 08:27:34;;;;;;;7.70;5.20;;;;;;;;;;4992311;28;20579;-86
2021/01/16 08:30:12;;;;;;;7.30;6.15;;;;;;;;;;4985781;28;20050;-87
2021/01/16 08:32:57;;;;;;;9.50;5.93;;;;;;;;;;4988366;28;20138;-87
2021/01/16 08:35:37;;;;;;;7.68;6.20;;;;;;;;;;4986931;28;20546;-87
2021/01/16 08:38:18;;;;;;;8.50;6.20;;;;;;;;;;4985788;28;20546;-88
2021/01/16 08:40:55;;;;;;;7.28;5.70;;;;;;;;;;4985169;28;20046;-87
2021/01/16 08:43:28;;;;;;;10.63;6.38;;;;;;;;;;4978585;28;20058;-89
2021/01/16 08:46:06;;;;;;;9.32;6.18;;;;;;;;;;4985325;28;20448;-86
2021/01/16 08:48:32;;;;;;;8.25;6.40;;;;;;;;;;4985615;28;20488;-89
2021/01/16 08:50:59;;;;;;;9.48;6.28;;;;;;;;;;4981702;28;20054;-90
2021/01/16 08:53:28;;;;;;;9.90;6.60;;;;;;;;;;4982514;28;20511;-88
2021/01/16 08:55:54;;;;;;;10.10;6.90;;;;;;;;;;4983833;28;20047;-90
2021/01/16 08:58:26;;;;;;;8.73;6.25;;;;;;;;;;4987923;28;20050;-87
2021/01/16 09:00:55;;;;;;;9.75;6.22;;;;;;;;;;4984331;28;20057;-89
2021/01/16 09:03:24;;;;;;;9.40;6.53;;;;;;;;;;4983789;28;21709;-88
2021/01/16 09:06:00;;;;;;;12.20;7.18;;;;;;;;;;4987040;28;20486;-90
2021/01/16 09:08:45;;;;;;;12.43;8.00;;;;;;;;;;4987734;28;20042;-88
2021/01/16 09:11:22;;;;;;;11.20;7.68;;;;;;;;;;4988025;28;20133;-88
2021/01/16 09:13:49;;;;;;;13.75;8.50;;;;;;;;;;4989379;28;20484;-88
2021/01/16 09:16:29;;;;;;;16.10;10.05;;;;;;;;;;4987088;28;20047;-86
2021/01/16 09:18:56;;;;;;;14.27;8.35;;;;;;;;;;4987939;28;20066;-87
2021/01/16 09:21:23;;;;;;;15.80;9.05;;;;;;;;;;4985266;28;20051;-88
2021/01/16 09:23:50;;;;;;;14.23;8.55;;;;;;;;;;4986245;28;20057;-88
2021/01/16 09:26:18;;;;;;;16.13;9.98;;;;;;;;;;4985051;28;20055;-88
2021/01/16 09:28:52;;;;;;;14.40;8.98;;;;;;;;;;4987499;28;20039;-83
2021/01/16 09:31:30;;;;;;;19.75;10.32;;;;;;;;;;4983385;28;20050;-85
2021/01/16 09:34:00;;;;;;;13.63;9.23;;;;;;;;;;4986073;28;20046;-86
2021/01/16 09:36:42;;;;;;;16.45;10.68;;;;;;;;;;4987535;28;20129;-86
2021/01/16 09:39:17;;;;;;;13.85;9.98;;;;;;;;;;4983698;28;20057;-85
2021/01/16 09:41:44;;;;;;;16.77;10.88;;;;;;;;;;4986792;28;20050;-85
2021/01/16 09:44:11;;;;;;;16.50;10.48;;;;;;;;;;4988339;28;20551;-86
2021/01/16 09:46:38;;;;;;;15.82;10.27;;;;;;;;;;4985270;28;20042;-86
2021/01/16 09:49:07;;;;;;;14.55;10.38;;;;;;;;;;4990484;28;20105;-85
2021/01/16 09:51:34;;;;;;;14.43;9.93;;;;;;;;;;4985137;28;20050;-85
2021/01/16 09:54:08;;;;;;;17.50;9.68;;;;;;;;;;4990069;28;20038;-85
2021/01/16 09:56:44;;;;;;;14.15;9.60;;;;;;;;;;4992813;28;20046;-85
2021/01/16 09:59:29;;;;;;;18.88;9.70;;;;;;;;;;4988428;28;20145;-85
2021/01/16 10:02:09;;;;;;;18.42;10.10;;;;;;;;;;4986130;28;20567;-85
2021/01/16 10:04:40;;;;;;;17.50;9.50;;;;;;;;;;4988226;28;20047;-86
2021/01/16 10:07:08;;;;;;;14.63;9.27;;;;;;;;;;4987969;28;20057;-85
2021/01/16 10:09:41;;;;;;;16.98;9.70;;;;;;;;;;4986300;28;20050;-84
2021/01/16 10:12:29;;;;;;;16.50;10.05;;;;;;;;;;4986462;28;20492;-85
2021/01/16 10:15:00;;;;;;;18.05;9.55;;;;;;;;;;4990111;28;20054;-86
2021/01/16 10:17:29;;;;;;;15.30;9.48;;;;;;;;;;4991075;28;20042;-84
2021/01/16 10:20:04;;;;;;;16.92;10.20;;;;;;;;;;4989727;28;20065;-85
2021/01/16 10:25:20;;;;;;;14.88;9.70;;;;;;;;;;4990096;28;20082;-86
2021/01/16 10:27:51;;;;;;;14.85;9.40;;;;;;;;;;4988492;28;20488;-87
2021/01/16 10:30:25;;;;;;;15.07;8.88;;;;;;;;;;4986268;28;20056;-87
2021/01/16 10:32:56;;;;;;;13.45;9.02;;;;;;;;;;4989235;28;20049;-88
2021/01/16 10:35:25;;;;;;;17.02;8.32;;;;;;;;;;4991490;28;20073;-86
2021/01/16 10:37:56;;;;;;;14.15;7.75;;;;;;;;;;4990232;28;20096;-88
2021/01/16 10:40:23;;;;;;;13.18;8.00;;;;;;;;;;4984748;28;20051;-87
2021/01/16 10:42:53;;;;;;;13.00;8.02;;;;;;;;;;4996929;28;20432;-87
2021/01/16 10:45:22;;;;;;;14.57;9.20;;;;;;;;;;4986276;28;20129;-87
2021/01/16 10:47:49;;;;;;;14.30;8.32;;;;;;;;;;4988897;28;20047;-92
2021/01/16 10:50:23;;;;;;;14.10;8.93;;;;;;;;;;4985132;28;20543;-83
2021/01/16 10:53:05;;;;;;;9.88;7.00;;;;;;;;;;4980152;28;20113;-81
2021/01/16 10:55:50;;;;;;;11.77;7.85;;;;;;;;;;4987037;28;20492;-76
2021/01/16 10:58:24;;;;;;;11.70;7.35;;;;;;;;;;4988606;28;20125;-84
2021/01/16 11:00:57;;;;;;;12.05;7.32;;;;;;;;;;4990589;28;20046;-85
2021/01/16 11:03:30;;;;;;;11.95;8.10;;;;;;;;;;4989934;28;20137;-86
2021/01/16 11:06:03;;;;;;;11.32;7.50;;;;;;;;;;4986042;28;20050;-92
2021/01/16 11:08:30;;;;;;;10.48;7.50;;;;;;;;;;4986038;28;20055;-84
2021/01/16 11:10:57;;;;;;;10.23;7.47;;;;;;;;;;4987891;28;20050;-86
2021/01/16 11:13:24;;;;;;;8.57;6.35;;;;;;;;;;4987944;28;20133;-85
2021/01/16 11:15:52;;;;;;;9.25;6.20;;;;;;;;;;4986769;28;20508;-84
2021/01/16 11:18:30;;;;;;;8.40;6.67;;;;;;;;;;4987860;28;20054;-82
2021/01/16 11:21:05;;;;;;;10.73;6.70;;;;;;;;;;4987336;28;20448;-89
2021/01/16 11:23:48;;;;;;;12.00;7.03;;;;;;;;;;4976592;28;20640;-81
2021/01/16 11:26:28;;;;;;;10.85;6.55;;;;;;;;;;4986319;28;20057;-75
2021/01/16 11:28:56;;;;;;;12.00;6.97;;;;;;;;;;4983819;28;20536;-75
2021/01/16 11:31:24;;;;;;;12.27;8.07;;;;;;;;;;4986222;28;20050;-75
2021/01/16 11:34:06;;;;;;;12.25;8.38;;;;;;;;;;4985352;28;20074;-75
2021/01/16 11:36:34;;;;;;;11.20;6.85;;;;;;;;;;4985044;28;20149;-75
2021/01/16 11:39:25;;;;;;;9.10;7.00;;;;;;;;;;4981529;28;20046;-78
2021/01/16 11:41:53;;;;;;;13.10;7.72;;;;;;;;;;4991225;28;20061;-87
2021/01/16 11:44:22;;;;;;;11.20;6.85;;;;;;;;;;4987004;28;20077;-86
2021/01/16 11:46:53;;;;;;;10.98;6.32;;;;;;;;;;4988724;28;20133;-87
2021/01/16 11:49:23;;;;;;;12.60;7.55;;;;;;;;;;4984380;28;20103;-85
2021/01/16 11:51:50;;;;;;;9.77;5.95;;;;;;;;;;4986055;28;20068;-84
2021/01/16 11:54:26;;;;;;;11.68;7.38;;;;;;;;;;4988022;28;20046;-85
2021/01/16 11:56:56;;;;;;;13.98;6.45;;;;;;;;;;4982701;28;20165;-84
2021/01/16 11:59:23;;;;;;;8.57;5.90;;;;;;;;;;4988868;28;20096;-86
2021/01/16 12:01:50;;;;;;;9.48;6.05;;;;;;;;;;4984752;28;20043;-85
2021/01/16 12:04:16;;;;;;;8.73;6.20;;;;;;;;;;4980989;28;20046;-84
2021/01/16 12:06:43;;;;;;;8.48;5.78;;;;;;;;;;4982870;28;20535;-86
2021/01/16 12:09:13;;;;;;;12.73;6.05;;;;;;;;;;4985637;28;20496;-86
2021/01/16 12:11:39;;;;;;;9.52;6.10;;;;;;;;;;4984894;28;20050;-83
2021/01/16 12:14:08;;;;;;;9.82;5.97;;;;;;;;;;4981553;28;20157;-85
2021/01/16 12:16:38;;;;;;;8.98;6.28;;;;;;;;;;4984435;28;20065;-86
2021/01/16 12:19:05;;;;;;;9.00;5.40;;;;;;;;;;4987473;28;20082;-85
2021/01/16 12:21:31;;;;;;;11.02;6.28;;;;;;;;;;4988894;28;20149;-84
2021/01/16 12:23:57;;;;;;;9.57;5.95;;;;;;;;;;4982375;28;20043;-85
2021/01/16 12:26:25;;;;;;;8.48;4.70;;;;;;;;;;4983469;28;20053;-85
2021/01/16 12:29:13;;;;;;;7.38;5.35;;;;;;;;;;4986707;28;20054;-84
2021/01/16 12:31:40;;;;;;;8.90;6.25;;;;;;;;;;4988867;28;20043;-86
2021/01/16 12:34:07;;;;;;;8.10;5.25;;;;;;;;;;4989194;28;20401;-85
2021/01/16 12:36:33;;;;;;;9.18;5.47;;;;;;;;;;4987842;28;20100;-85
2021/01/16 12:39:00;;;;;;;7.45;4.65;;;;;;;;;;4983404;28;20050;-84
2021/01/16 12:41:26;;;;;;;11.48;5.30;;;;;;;;;;4987041;28;20050;-81
2021/01/16 12:43:52;;;;;;;8.18;5.45;;;;;;;;;;4978958;28;20054;-81
2021/01/16 12:46:19;;;;;;;9.75;5.65;;;;;;;;;;4983301;28;20046;-80
2021/01/16 12:48:46;;;;;;;10.02;5.45;;;;;;;;;;4984380;28;20607;-81
2021/01/16 12:51:16;;;;;;;9.45;4.78;;;;;;;;;;4981516;28;20480;-81
2021/01/16 12:53:43;;;;;;;;;;;;;;;;;;4982030;28;20050;-81
2021/01/16 12:56:14;;;;;;;9.43;4.88;;;;;;;;;;4987326;28;20434;-80
2021/01/16 12:58:40;;;;;;;5.95;4.50;;;;;;;;;;4983741;28;20076;-80
2021/01/16 13:01:07;;;;;;;8.70;5.38;;;;;;;;;;4985380;28;20046;-82
2021/01/16 13:03:33;;;;;;;6.97;4.93;;;;;;;;;;4986507;28;20062;-81
2021/01/16 13:06:01;;;;;;;7.82;4.70;;;;;;;;;;4982160;28;20547;-74
2021/01/16 13:08:27;;;;;;;10.40;4.53;;;;;;;;;;4984952;28;20050;-75
2021/01/16 13:10:55;;;;;;;7.78;4.70;;;;;;;;;;4986510;28;20042;-78
2021/01/16 13:13:21;;;;;;;7.65;4.70;;;;;;;;;;4980694;28;20461;-77
2021/01/16 13:15:48;;;;;;;6.13;4.32;;;;;;;;;;4988890;28;20447;-82
2021/01/16 13:18:23;;;;;;;6.50;4.55;;;;;;;;;;4981858;28;20110;-81
2021/01/16 13:20:53;;;;;;;9.05;4.65;;;;;;;;;;4986558;28;20050;-83
2021/01/16 13:23:38;;;;;;;7.60;4.18;;;;;;;;;;4981452;28;20042;-80
2021/01/16 13:26:04;;;;;;;7.70;4.55;;;;;;;;;;4985993;28;20046;-81
2021/01/16 13:28:31;;;;;;;6.00;4.50;;;;;;;;;;4985516;28;20473;-81
2021/01/16 13:31:00;;;;;;;6.78;4.53;;;;;;;;;;4987044;28;20060;-80
2021/01/16 13:33:28;;;;;;;8.02;4.38;;;;;;;;;;4987545;28;20464;-81
2021/01/16 13:35:54;;;;;;;10.68;5.28;;;;;;;;;;4989139;28;20058;-80
2021/01/16 13:38:21;;;;;;;10.55;4.93;;;;;;;;;;4987016;28;20046;-82
2021/01/16 13:40:57;;;;;;;13.48;5.38;;;;;;;;;;4987578;28;20512;-82
2021/01/16 13:43:25;;;;;;;9.25;4.97;;;;;;;;;;4986960;28;20504;-81
2021/01/16 13:45:52;;;;;;;11.40;5.43;;;;;;;;;;4987543;28;20061;-81
2021/01/16 13:48:18;;;;;;;9.27;5.07;;;;;;;;;;4987864;28;20049;-82
2021/01/16 13:50:46;;;;;;;6.57;4.60;;;;;;;;;;4981223;28;20053;-81
2021/01/16 13:53:12;;;;;;;8.57;5.40;;;;;;;;;;4980874;28;20082;-80
2021/01/16 13:55:39;;;;;;;9.55;4.88;;;;;;;;;;4985317;28;20386;-81
2021/01/16 13:58:07;;;;;;;9.35;5.80;;;;;;;;;;4989367;28;20125;-79
2021/01/16 14:00:42;;;;;;;7.85;5.13;;;;;;;;;;4980993;28;20130;-80
2021/01/16 14:03:08;;;;;;;10.15;5.00;;;;;;;;;;4988046;28;20093;-79
2021/01/16 14:05:35;;;;;;;12.88;4.95;;;;;;;;;;4985128;28;20489;-78
2021/01/16 14:08:14;;;;;;;11.80;5.35;;;;;;;;;;4987206;28;20452;-80
2021/01/16 14:10:44;;;;;;;9.50;5.50;;;;;;;;;;4982704;28;20050;-80
2021/01/16 14:13:14;;;;;;;9.93;4.57;;;;;;;;;;4983702;28;20046;-80
2021/01/16 14:16:12;;;;;;;6.85;4.35;;;;;;;;;;4985221;28;20515;-79
2021/01/16 14:18:40;;;;;;;9.98;4.28;;;;;;;;;;4969514;28;20082;-82
2021/01/16 14:21:14;;;;;;;6.85;4.55;;;;;;;;;;4979330;28;20145;-82
2021/01/16 14:23:40;;;;;;;8.18;4.40;;;;;;;;;;4983619;28;20142;-81
2021/01/16 14:26:19;;;;;;;8.13;4.72;;;;;;;;;;4978483;28;20519;-81
2021/01/16 14:28:50;;;;;;;6.80;5.10;;;;;;;;;;4982355;28;20042;-81
2021/01/16 14:31:22;;;;;;;8.38;4.00;;;;;;;;;;4985307;28;20380;-81
2021/01/16 14:34:01;;;;;;;8.00;4.78;;;;;;;;;;4987987;28;20050;-81
2021/01/16 14:36:31;;;;;;;9.07;4.07;;;;;;;;;;4981656;28;20150;-81
2021/01/16 14:38:57;;;;;;;11.60;4.03;;;;;;;;;;4983334;28;20358;-79
2021/01/16 14:41:34;;;;;;;6.97;3.47;;;;;;;;;;4979813;28;20499;-82
2021/01/16 14:44:00;;;;;;;11.25;5.07;;;;;;;;;;4989253;28;20693;-79
2021/01/16 14:46:27;;;;;;;8.05;4.68;;;;;;;;;;4991846;28;20043;-81
2021/01/16 14:48:54;;;;;;;8.35;4.93;;;;;;;;;;4991222;28;20113;-80
2021/01/16 14:51:27;;;;;;;10.15;4.55;;;;;;;;;;4988351;28;20046;-82